Time;durP1;ratioP1;P1;durP2;ratioP2;P2;SDS_P1;SDS_P2;PMS_P1;PMS_P2;Temp;Humidity;BMP_temperature;BMP_pressure;BME280_temperature;BME280_humidity;BME280_pressure;Samples;Min_cycle;Max_cycle;Signal;HPM_P1;HPM_P2
2022/11/19 00:00:18;;;;;;;56.13;44.38;;;21.50;58.80;;;;;;4824891;55;20992;-45
2022/11/19 00:05:19;;;;;;;53.83;43.92;;;21.50;58.80;;;;;;4700482;55;21069;-44
2022/11/19 00:10:20;;;;;;;53.55;43.63;;;21.50;58.80;;;;;;4888911;55;21474;-43
2022/11/19 00:15:22;;;;;;;49.80;43.08;;;21.50;58.70;;;;;;5122873;55;21071;-46
2022/11/19 00:20:23;;;;;;;53.63;42.70;;;21.50;58.70;;;;;;4777714;55;21048;-47
2022/11/19 00:25:26;;;;;;;51.95;42.22;;;21.50;58.70;;;;;;4776703;55;21012;-41
2022/11/19 00:30:27;;;;;;;49.33;40.83;;;21.50;58.70;;;;;;4719708;55;20996;-43
2022/11/19 00:35:28;;;;;;;53.45;42.90;;;21.50;58.70;;;;;;4749929;55;21024;-45
2022/11/19 00:40:29;;;;;;;52.28;41.90;;;21.50;58.60;;;;;;4761809;55;21007;-45
2022/11/19 00:45:29;;;;;;;52.20;40.83;;;21.50;58.60;;;;;;4844789;55;21094;-38
2022/11/19 00:50:30;;;;;;;51.20;41.33;;;21.50;58.60;;;;;;4694891;59;21016;-46
2022/11/19 00:55:31;;;;;;;51.03;41.33;;;21.50;58.50;;;;;;4753167;55;21067;-49
2022/11/19 01:00:32;;;;;;;49.58;40.67;;;21.50;58.50;;;;;;4727424;55;21051;-45
2022/11/19 01:05:33;;;;;;;49.70;40.47;;;21.50;58.50;;;;;;4748472;55;21008;-39
2022/11/19 01:10:34;;;;;;;47.25;39.67;;;21.50;58.50;;;;;;4695004;59;21008;-39
2022/11/19 01:15:35;;;;;;;49.03;39.05;;;21.50;58.40;;;;;;4741094;55;21017;-45
2022/11/19 01:20:36;;;;;;;49.33;39.97;;;21.50;58.40;;;;;;4781186;55;21051;-42
2022/11/19 01:25:37;;;;;;;46.90;38.78;;;21.50;58.40;;;;;;4694777;59;21478;-36
2022/11/19 01:30:42;;;;;;;49.88;38.50;;;21.50;58.40;;;;;;4818356;55;21494;-43
2022/11/19 01:35:43;;;;;;;49.75;40.53;;;21.50;58.30;;;;;;4851109;55;21065;-43
2022/11/19 01:40:45;;;;;;;48.22;38.33;;;21.50;58.30;;;;;;4719558;55;21577;-46
2022/11/19 01:45:48;;;;;;;49.33;38.17;;;21.50;58.20;;;;;;4834521;55;21063;-44
2022/11/19 01:51:03;;;;;;;48.00;37.75;;;21.50;58.20;;;;;;5033454;55;21620;-35
2022/11/19 01:56:07;;;;;;;47.65;38.50;;;21.50;58.20;;;;;;4847889;55;21020;-39
2022/11/19 02:01:09;;;;;;;46.80;38.08;;;21.50;58.20;;;;;;4733595;55;21601;-49
2022/11/19 02:06:11;;;;;;;48.50;37.72;;;21.50;58.10;;;;;;4695098;55;21000;-42
2022/11/19 02:15:41;;;;;;;48.17;37.33;;;21.40;58.00;;;;;;4923709;55;22140;-40
2022/11/19 02:21:10;;;;;;;48.17;36.97;;;21.50;58.10;;;;;;4694837;56;21028;-48
2022/11/19 02:29:08;;;;;;;47.78;37.15;;;21.50;58.00;;;;;;4776016;55;20981;-40
2022/11/19 02:35:49;;;;;;;45.60;36.28;;;21.50;58.00;;;;;;4784612;55;21001;-43
2022/11/19 02:41:32;;;;;;;44.10;35.92;;;21.40;57.90;;;;;;4888609;55;21072;-45
2022/11/19 02:46:33;;;;;;;44.22;35.15;;;21.50;57.90;;;;;;4747236;55;21558;-35
2022/11/19 02:51:34;;;;;;;44.28;35.85;;;21.50;57.90;;;;;;4694629;59;21003;-35
2022/11/19 02:56:51;;;;;;;45.45;36.13;;;21.50;57.80;;;;;;4784870;55;21554;-45
2022/11/19 03:07:17;;;;;;;44.97;34.80;;;21.40;57.70;;;;;;4694442;55;21084;-44
2022/11/19 03:12:46;;;;;;;41.63;32.85;;;21.40;57.70;;;;;;4694853;59;21075;-43
2022/11/19 03:18:01;;;;;;;42.40;33.33;;;21.40;57.60;;;;;;5080805;55;21067;-43
2022/11/19 03:24:33;;;;;;;40.40;33.60;;;21.40;57.60;;;;;;4870121;55;21068;-45
2022/11/19 03:29:37;;;;;;;43.42;33.95;;;21.40;57.50;;;;;;4879650;55;21040;-45
2022/11/19 03:34:40;;;;;;;40.25;32.25;;;21.40;57.50;;;;;;4892408;55;21028;-48
2022/11/19 03:39:42;;;;;;;42.42;33.00;;;21.40;57.50;;;;;;4753761;55;21000;-43
2022/11/19 03:44:49;;;;;;;41.03;32.00;;;21.40;57.50;;;;;;5126231;55;21091;-43
2022/11/19 03:49:57;;;;;;;39.42;31.12;;;21.40;57.40;;;;;;4794679;55;21040;-46
2022/11/19 03:54:58;;;;;;;40.08;30.95;;;21.40;57.40;;;;;;4695255;59;21053;-44
2022/11/19 03:59:59;;;;;;;36.05;29.90;;;21.40;57.30;;;;;;5053996;55;21016;-43
2022/11/19 04:05:00;;;;;;;37.38;30.33;;;21.40;57.40;;;;;;4694043;59;21653;-46
2022/11/19 04:10:00;;;;;;;38.55;31.17;;;21.40;57.30;;;;;;4694897;59;21068;-50
2022/11/19 04:15:01;;;;;;;38.20;30.67;;;21.40;57.30;;;;;;4694651;59;21027;-45
2022/11/19 04:20:04;;;;;;;39.03;29.98;;;21.40;57.50;;;;;;4722964;55;21446;-37
2022/11/19 04:25:06;;;;;;;37.75;30.42;;;21.40;57.30;;;;;;4695022;59;21514;-46
2022/11/19 04:30:08;;;;;;;36.70;29.42;;;21.40;57.20;;;;;;4783820;55;21083;-40
2022/11/19 04:35:09;;;;;;;36.15;28.20;;;21.40;57.30;;;;;;4795708;55;21601;-39
2022/11/19 04:40:11;;;;;;;37.22;29.35;;;21.40;57.20;;;;;;4927783;55;21067;-41
2022/11/19 04:45:12;;;;;;;39.40;30.25;;;21.40;57.20;;;;;;4750594;55;21108;-42
2022/11/19 04:50:13;;;;;;;35.60;28.12;;;21.40;57.20;;;;;;4694531;59;21012;-46
2022/11/19 04:55:14;;;;;;;36.60;28.12;;;21.40;57.10;;;;;;4695031;56;21558;-47
2022/11/19 05:00:16;;;;;;;34.65;27.58;;;21.40;57.20;;;;;;4850076;55;21035;-44
2022/11/19 05:05:17;;;;;;;34.15;27.80;;;21.40;57.10;;;;;;4864922;55;21493;-41
2022/11/19 05:10:18;;;;;;;36.00;28.75;;;21.40;57.10;;;;;;4765944;55;21048;-43
2022/11/19 05:15:18;;;;;;;35.30;27.30;;;21.40;57.10;;;;;;4748753;55;21079;-40
2022/11/19 05:20:19;;;;;;;33.97;27.58;;;21.40;57.10;;;;;;4770427;55;21076;-42
2022/11/19 05:25:20;;;;;;;34.42;27.48;;;21.40;57.20;;;;;;4873008;55;21477;-48
2022/11/19 05:30:21;;;;;;;35.47;28.38;;;21.40;57.10;;;;;;4764547;55;21059;-48
2022/11/19 05:35:22;;;;;;;34.95;26.58;;;21.40;57.10;;;;;;4758886;55;21147;-42
2022/11/19 05:40:23;;;;;;;33.95;26.05;;;21.30;57.00;;;;;;4694773;59;21015;-40
2022/11/19 05:45:23;;;;;;;32.85;25.65;;;21.40;57.00;;;;;;4820422;55;21004;-43
2022/11/19 05:50:24;;;;;;;32.30;25.60;;;21.40;57.00;;;;;;4819075;55;21015;-47
2022/11/19 05:55:25;;;;;;;33.53;27.05;;;21.40;57.00;;;;;;4694850;59;21123;-42
2022/11/19 06:00:26;;;;;;;33.75;27.08;;;21.30;57.50;;;;;;4694840;55;21059;-34
2022/11/19 06:05:27;;;;;;;32.55;25.48;;;21.30;57.00;;;;;;4919434;55;21558;-45
2022/11/19 06:10:28;;;;;;;35.80;25.20;;;21.40;57.00;;;;;;4694884;59;21008;-39
2022/11/19 06:15:29;;;;;;;33.20;26.58;;;21.40;57.00;;;;;;4771715;55;21028;-43
2022/11/19 06:20:29;;;;;;;32.75;25.17;;;21.30;56.90;;;;;;4739577;55;21012;-49
2022/11/19 06:25:30;;;;;;;30.37;24.85;;;21.40;56.90;;;;;;4695216;55;21016;-46
2022/11/19 06:30:31;;;;;;;32.15;25.37;;;21.40;56.90;;;;;;5078126;55;21003;-41
2022/11/19 06:35:32;;;;;;;31.42;25.37;;;21.30;56.70;;;;;;4694367;59;21024;-45
2022/11/19 06:40:33;;;;;;;34.40;26.15;;;21.30;56.60;;;;;;4771779;55;21456;-40
2022/11/19 06:45:33;;;;;;;35.05;25.33;;;21.30;56.50;;;;;;4780192;55;21568;-49
2022/11/19 06:50:34;;;;;;;32.08;26.12;;;21.30;56.50;;;;;;4853057;55;21068;-43
2022/11/19 06:55:35;;;;;;;32.38;25.60;;;21.40;56.40;;;;;;4720900;55;21076;-41
2022/11/19 07:00:36;;;;;;;35.47;27.02;;;21.30;56.40;;;;;;5106047;55;21598;-48
2022/11/19 07:05:36;;;;;;;32.88;25.80;;;21.30;56.30;;;;;;4695025;59;21012;-36
2022/11/19 07:10:37;;;;;;;31.27;25.80;;;21.30;56.30;;;;;;4843076;55;21493;-39
2022/11/19 07:15:38;;;;;;;35.35;26.60;;;21.30;56.20;;;;;;4926780;55;21486;-47
2022/11/19 07:20:39;;;;;;;35.72;27.80;;;21.30;56.30;;;;;;4709493;55;21016;-46
2022/11/19 07:25:40;;;;;;;34.63;26.83;;;21.30;56.20;;;;;;4879187;55;21027;-47
2022/11/19 07:30:40;;;;;;;34.97;28.20;;;21.30;56.10;;;;;;4747255;55;21545;-39
2022/11/19 07:35:41;;;;;;;35.25;27.35;;;21.30;56.10;;;;;;4702303;55;21019;-39
2022/11/19 07:40:42;;;;;;;36.63;28.58;;;21.30;56.10;;;;;;4758527;55;21004;-47
2022/11/19 07:45:43;;;;;;;38.40;30.08;;;21.30;56.10;;;;;;4740669;55;21119;-38
2022/11/19 07:50:50;;;;;;;36.30;28.35;;;21.30;56.00;;;;;;4694885;59;21004;-46
2022/11/19 07:55:51;;;;;;;38.28;28.55;;;21.30;55.90;;;;;;4792481;55;21530;-42
2022/11/19 08:00:51;;;;;;;38.58;29.48;;;21.30;56.00;;;;;;4972084;55;21024;-42
2022/11/19 08:05:52;;;;;;;38.15;30.20;;;21.30;55.90;;;;;;4758276;55;21084;-41
2022/11/19 08:10:53;;;;;;;41.15;30.67;;;21.30;55.90;;;;;;5019669;55;21072;-50
2022/11/19 08:15:59;;;;;;;40.92;32.05;;;21.30;55.80;;;;;;4694283;59;21064;-34
2022/11/19 08:21:09;;;;;;;42.08;31.92;;;21.30;55.80;;;;;;4874510;55;21056;-32
2022/11/19 08:26:10;;;;;;;45.20;32.15;;;21.30;55.80;;;;;;4738075;55;20996;-45
2022/11/19 08:31:10;;;;;;;40.35;31.83;;;21.30;55.70;;;;;;4745460;55;21011;-40
2022/11/19 08:36:12;;;;;;;47.03;34.38;;;21.30;55.80;;;;;;4724573;55;21573;-42
2022/11/19 08:46:32;;;;;;;43.53;33.55;;;21.30;55.70;;;;;;4694409;55;21088;-41
2022/11/19 08:51:33;;;;;;;46.33;36.03;;;21.30;55.60;;;;;;4764160;55;21535;-36
2022/11/19 08:56:34;;;;;;;46.50;35.20;;;21.30;55.70;;;;;;4802651;55;21406;-37
2022/11/19 09:01:35;;;;;;;45.63;35.22;;;21.30;55.70;;;;;;4703945;55;21076;-44
2022/11/19 09:06:35;;;;;;;48.03;36.40;;;21.30;55.60;;;;;;4832427;55;21137;-47
2022/11/19 09:11:36;;;;;;;51.37;38.92;;;21.30;55.70;;;;;;4710780;55;21026;-39
2022/11/19 09:16:37;;;;;;;53.75;39.63;;;21.30;55.60;;;;;;4694450;59;21396;-44
2022/11/19 09:21:38;;;;;;;51.33;39.45;;;21.30;55.70;;;;;;4830220;55;21079;-36
2022/11/19 09:26:39;;;;;;;51.70;39.63;;;21.30;55.70;;;;;;4694272;59;21076;-41
2022/11/19 09:31:40;;;;;;;57.35;41.70;;;21.30;55.70;;;;;;4707798;55;21044;-51
2022/11/19 09:36:40;;;;;;;54.97;43.10;;;21.30;55.70;;;;;;4693783;59;21514;-44
2022/11/19 09:41:49;;;;;;;59.50;43.72;;;21.30;55.70;;;;;;4744960;55;21483;-43
2022/11/19 09:50:22;;;;;;;56.78;44.75;;;21.30;55.70;;;;;;4694416;59;21008;-48
2022/11/19 09:55:30;;;;;;;63.20;46.53;;;21.30;55.70;;;;;;4743837;55;21024;-51
2022/11/19 10:00:32;;;;;;;61.60;47.45;;;21.30;55.70;;;;;;4694504;59;21076;-46
2022/11/19 10:07:46;;;;;;;68.78;50.78;;;21.30;55.70;;;;;;4850542;55;21100;-32
2022/11/19 10:13:27;;;;;;;70.47;52.67;;;21.30;56.30;;;;;;4930743;55;21028;-47
2022/11/19 10:19:36;;;;;;;67.70;51.80;;;21.40;55.80;;;;;;4796607;55;21075;-41
2022/11/19 10:25:20;;;;;;;75.10;55.17;;;21.30;55.80;;;;;;4794008;55;21060;-41
2022/11/19 10:30:24;;;;;;;72.22;55.15;;;21.30;55.80;;;;;;4695223;55;21035;-40
2022/11/19 10:35:39;;;;;;;77.72;59.30;;;21.40;55.90;;;;;;4694842;59;21020;-45
2022/11/19 10:40:44;;;;;;;82.00;61.67;;;21.40;55.90;;;;;;4714278;55;21059;-39
2022/11/19 10:45:45;;;;;;;84.18;61.08;;;21.40;55.90;;;;;;4765775;55;20992;-47
2022/11/19 10:50:46;;;;;;;86.15;64.22;;;21.40;55.90;;;;;;4983365;55;21076;-43
2022/11/19 10:55:50;;;;;;;88.30;65.15;;;21.40;56.00;;;;;;4723315;55;21129;-50
2022/11/19 11:00:59;;;;;;;87.78;63.87;;;21.40;56.00;;;;;;4694598;59;21016;-34
2022/11/19 11:06:06;;;;;;;102.90;71.40;;;21.40;56.00;;;;;;4952460;55;21008;-42
2022/11/19 11:11:07;;;;;;;96.50;70.43;;;21.40;56.00;;;;;;4847618;55;21566;-44
2022/11/19 11:16:14;;;;;;;95.25;69.62;;;21.40;56.00;;;;;;4694537;59;21076;-42
2022/11/19 11:21:37;;;;;;;99.82;73.68;;;21.40;56.10;;;;;;4695412;55;20976;-42
2022/11/19 11:26:39;;;;;;;99.20;73.78;;;21.40;56.10;;;;;;4946767;55;21478;-40
2022/11/19 11:31:45;;;;;;;104.43;77.93;;;21.40;56.10;;;;;;4857366;55;20999;-34
2022/11/19 11:36:46;;;;;;;105.75;77.05;;;21.40;56.10;;;;;;4694236;59;21012;-39
2022/11/19 11:41:49;;;;;;;106.40;78.93;;;21.40;56.10;;;;;;4783371;55;21007;-46
2022/11/19 11:46:56;;;;;;;112.80;82.43;;;21.40;56.10;;;;;;4777120;55;21087;-43
2022/11/19 11:52:50;;;;;;;111.88;82.68;;;21.40;56.10;;;;;;4822984;55;20984;-44
2022/11/19 11:58:29;;;;;;;113.72;82.10;;;21.40;56.20;;;;;;4765302;55;21560;-43
2022/11/19 12:03:33;;;;;;;110.22;82.10;;;21.40;56.20;;;;;;4729707;55;21534;-41
2022/11/19 12:11:20;;;;;;;107.50;81.53;;;21.40;56.20;;;;;;4778576;55;21502;-45
2022/11/19 12:21:04;;;;;;;114.50;87.85;;;21.40;56.20;;;;;;4734736;55;21152;-45
2022/11/19 12:31:03;;;;;;;117.57;87.65;;;21.40;56.30;;;;;;4865035;55;21572;-48
2022/11/19 12:36:27;;;;;;;120.72;90.82;;;21.40;56.30;;;;;;4746258;55;21478;-37
2022/11/19 12:42:39;;;;;;;117.18;90.38;;;21.40;56.30;;;;;;4694854;59;21056;-45
2022/11/19 12:48:22;;;;;;;124.25;92.78;;;21.40;57.00;;;;;;4840744;55;20992;-46
2022/11/19 12:53:54;;;;;;;126.72;95.05;;;21.40;56.40;;;;;;4824388;55;21060;-47
2022/11/19 13:00:36;;;;;;;123.47;95.18;;;21.40;56.40;;;;;;4771740;55;21104;-36
2022/11/19 13:05:55;;;;;;;129.77;98.12;;;21.40;56.40;;;;;;4911248;55;21077;-36
2022/11/19 13:11:14;;;;;;;126.80;97.97;;;21.40;56.40;;;;;;4750093;55;21081;-48
2022/11/19 13:16:19;;;;;;;135.37;99.60;;;21.40;56.40;;;;;;4694719;59;21016;-46
2022/11/19 13:21:31;;;;;;;126.70;97.00;;;21.40;56.50;;;;;;4795163;55;21053;-45
2022/11/19 13:26:34;;;;;;;122.93;94.60;;;21.40;56.50;;;;;;4851493;55;21067;-35
2022/11/19 13:31:42;;;;;;;133.27;99.35;;;21.40;56.50;;;;;;4802051;55;21004;-44
2022/11/19 13:36:52;;;;;;;134.00;100.25;;;21.40;56.50;;;;;;4820807;55;21087;-44
2022/11/19 13:47:25;;;;;;;129.82;99.28;;;21.40;56.60;;;;;;4694398;59;21028;-46
2022/11/19 13:52:35;;;;;;;133.73;100.30;;;21.40;56.60;;;;;;4842438;55;21004;-47
2022/11/19 13:57:43;;;;;;;132.25;100.97;;;21.40;56.60;;;;;;4939951;55;21162;-46
2022/11/19 14:06:13;;;;;;;130.45;99.65;;;21.40;56.60;;;;;;5123017;55;21088;-47
2022/11/19 14:11:51;;;;;;;132.25;100.35;;;21.40;56.70;;;;;;4914090;55;21008;-35
2022/11/19 14:28:49;;;;;;;137.30;104.57;;;21.40;56.90;;;;;;4694515;55;20113;-34
2022/11/19 14:33:58;;;;;;;137.75;105.32;;;21.40;56.80;;;;;;4872928;55;21084;-47
2022/11/19 14:39:01;;;;;;;136.60;107.95;;;21.40;56.80;;;;;;4707809;55;21482;-46
2022/11/19 14:44:08;;;;;;;137.43;106.85;;;21.40;56.80;;;;;;4726388;55;21032;-36
2022/11/19 14:49:33;;;;;;;135.75;105.80;;;21.40;56.80;;;;;;4695044;59;21032;-42
2022/11/19 14:54:38;;;;;;;134.12;103.35;;;21.40;56.80;;;;;;4694598;59;21008;-46
2022/11/19 14:59:46;;;;;;;137.48;109.03;;;21.40;56.90;;;;;;4857561;55;21012;-41
2022/11/19 15:04:55;;;;;;;132.85;103.68;;;21.40;56.90;;;;;;4829759;55;21020;-44
2022/11/19 15:10:29;;;;;;;137.82;107.40;;;21.40;56.90;;;;;;4695573;55;21055;-44
2022/11/19 15:15:39;;;;;;;135.55;107.47;;;21.40;56.90;;;;;;4695144;59;21028;-36
2022/11/19 15:22:21;;;;;;;130.25;103.87;;;21.40;56.90;;;;;;4714037;55;21534;-44
2022/11/19 15:28:05;;;;;;;138.70;110.40;;;21.40;56.90;;;;;;4695328;59;21000;-44
2022/11/19 15:33:51;;;;;;;135.95;109.37;;;21.40;56.90;;;;;;4735437;55;21076;-42
2022/11/19 15:45:48;;;;;;;132.37;106.68;;;21.40;57.00;;;;;;4694150;56;21044;-38
2022/11/19 15:50:51;;;;;;;136.43;107.28;;;21.40;56.90;;;;;;4879130;55;21043;-47
2022/11/19 15:55:58;;;;;;;141.12;110.30;;;21.40;57.00;;;;;;4984130;55;21020;-46
2022/11/19 16:00:59;;;;;;;134.43;105.63;;;21.40;57.00;;;;;;4695061;59;21084;-42
2022/11/19 16:06:06;;;;;;;134.55;106.35;;;21.40;57.00;;;;;;4856574;55;21004;-52
2022/11/19 16:21:53;;;;;;;136.85;109.70;;;21.40;57.00;;;;;;4694598;55;21076;-46
2022/11/19 16:26:54;;;;;;;136.12;109.63;;;21.40;57.00;;;;;;4756200;55;20988;-36
2022/11/19 16:31:58;;;;;;;138.75;110.05;;;21.40;57.00;;;;;;4928672;55;21008;-48
2022/11/19 16:36:59;;;;;;;133.23;105.82;;;21.40;57.00;;;;;;4905734;55;21483;-45
2022/11/19 16:42:16;;;;;;;135.23;106.80;;;21.40;57.00;;;;;;4709933;55;21064;-40
2022/11/19 16:47:57;;;;;;;131.15;106.93;;;21.40;57.00;;;;;;4804166;55;21103;-43
2022/11/19 16:53:00;;;;;;;133.95;106.55;;;21.40;57.00;;;;;;4873255;55;20988;-33
2022/11/19 16:58:27;;;;;;;137.27;109.12;;;21.40;57.00;;;;;;4954721;55;21032;-40
2022/11/19 17:03:34;;;;;;;129.85;104.07;;;21.40;57.00;;;;;;4924649;55;21625;-52
2022/11/19 17:08:37;;;;;;;132.20;105.45;;;21.40;57.00;;;;;;4834134;55;21522;-45
2022/11/19 17:13:37;;;;;;;130.45;105.75;;;21.40;57.00;;;;;;4694733;59;21004;-35
2022/11/19 17:18:41;;;;;;;131.82;105.70;;;21.40;57.00;;;;;;4970080;55;21079;-39
2022/11/19 17:23:47;;;;;;;132.55;106.82;;;21.40;57.10;;;;;;4774402;55;21063;-47
2022/11/19 17:28:52;;;;;;;133.10;105.93;;;21.40;57.10;;;;;;4843714;55;20996;-48
2022/11/19 17:34:31;;;;;;;132.37;107.25;;;21.40;57.00;;;;;;5073731;55;21556;-44
2022/11/19 17:39:31;;;;;;;133.10;106.30;;;21.40;57.00;;;;;;5054723;55;21542;-44
2022/11/19 17:44:37;;;;;;;127.82;101.50;;;21.40;57.00;;;;;;4821217;55;21024;-47
2022/11/19 17:49:38;;;;;;;131.45;106.60;;;21.40;57.00;;;;;;4955759;55;21459;-39
2022/11/19 17:54:39;;;;;;;133.48;104.68;;;21.40;57.10;;;;;;4838161;55;21093;-42
2022/11/19 17:59:40;;;;;;;128.38;103.50;;;21.40;57.10;;;;;;4950072;55;21015;-44
2022/11/19 18:04:45;;;;;;;133.23;104.53;;;21.40;57.00;;;;;;4933066;55;21035;-47
2022/11/19 18:09:46;;;;;;;130.37;104.82;;;21.40;57.10;;;;;;4852419;55;21070;-49
2022/11/19 18:14:47;;;;;;;130.18;108.45;;;21.40;57.00;;;;;;4748282;55;21496;-41
2022/11/19 18:19:48;;;;;;;131.52;107.22;;;21.30;57.00;;;;;;4693819;59;21581;-49
2022/11/19 18:24:50;;;;;;;130.95;105.78;;;21.40;57.10;;;;;;4802678;55;21123;-43
2022/11/19 18:29:51;;;;;;;129.30;103.80;;;21.40;57.00;;;;;;4776148;55;21563;-45
2022/11/19 18:34:51;;;;;;;126.22;102.80;;;21.40;57.10;;;;;;4881268;55;21008;-45
2022/11/19 18:39:52;;;;;;;131.68;104.68;;;21.40;57.00;;;;;;4694570;59;21008;-44
2022/11/19 18:44:53;;;;;;;130.05;106.22;;;21.40;57.60;;;;;;4703325;55;21542;-46
2022/11/19 18:49:54;;;;;;;125.20;102.75;;;21.40;57.70;;;;;;4705781;55;21024;-39
2022/11/19 18:54:56;;;;;;;127.80;103.57;;;21.40;57.00;;;;;;4769428;55;21008;-41
2022/11/19 18:59:57;;;;;;;130.57;105.35;;;21.40;57.00;;;;;;4735925;55;21036;-41
2022/11/19 19:04:58;;;;;;;129.25;104.60;;;21.40;57.00;;;;;;4776304;55;20972;-49
2022/11/19 19:09:59;;;;;;;124.28;100.78;;;21.40;57.00;;;;;;4694896;59;21024;-44
2022/11/19 19:15:00;;;;;;;126.90;100.97;;;21.40;57.00;;;;;;4911938;55;21005;-34
2022/11/19 19:20:00;;;;;;;124.38;102.60;;;21.40;57.00;;;;;;4767476;55;21463;-36
2022/11/19 19:25:03;;;;;;;125.87;102.03;;;21.40;57.00;;;;;;4695030;59;21016;-45
2022/11/19 19:30:05;;;;;;;125.53;102.30;;;21.40;57.00;;;;;;4695286;56;21526;-45
2022/11/19 19:35:07;;;;;;;121.25;98.20;;;21.40;57.00;;;;;;4830746;55;21000;-41
2022/11/19 19:40:10;;;;;;;120.45;97.85;;;21.40;56.90;;;;;;4694914;59;21471;-38
2022/11/19 19:45:10;;;;;;;122.78;98.85;;;21.40;57.00;;;;;;4701407;55;20988;-46
2022/11/19 19:50:11;;;;;;;120.87;99.07;;;21.40;56.90;;;;;;4741488;55;21064;-42
2022/11/19 19:55:12;;;;;;;118.55;97.90;;;21.30;56.90;;;;;;4955305;55;21032;-45
2022/11/19 20:00:15;;;;;;;119.20;98.70;;;21.40;56.90;;;;;;4694674;59;21052;-40
2022/11/19 20:05:15;;;;;;;120.65;98.72;;;21.40;56.90;;;;;;4773908;55;21071;-43
2022/11/19 20:10:16;;;;;;;117.45;96.57;;;21.40;56.80;;;;;;4857257;55;21181;-47
2022/11/19 20:15:17;;;;;;;119.07;98.70;;;21.40;56.80;;;;;;4695051;59;21163;-47
2022/11/19 20:20:18;;;;;;;114.85;94.15;;;21.30;56.80;;;;;;4694665;56;21048;-46
2022/11/19 20:25:19;;;;;;;114.95;94.53;;;21.30;56.80;;;;;;4779933;55;21056;-46
2022/11/19 20:30:19;;;;;;;116.12;92.45;;;21.30;56.90;;;;;;4966037;55;21016;-45
2022/11/19 20:35:20;;;;;;;117.32;95.28;;;21.40;56.80;;;;;;4694888;59;21024;-39
2022/11/19 20:40:21;;;;;;;113.37;91.28;;;21.30;56.80;;;;;;4694410;59;21075;-43
2022/11/19 20:45:22;;;;;;;112.37;93.10;;;21.30;56.70;;;;;;4695013;59;21155;-41
2022/11/19 20:50:23;;;;;;;113.90;92.65;;;21.30;56.70;;;;;;4962410;55;21068;-46
2022/11/19 20:55:24;;;;;;;112.72;92.47;;;21.30;56.70;;;;;;4694561;59;21048;-43
2022/11/19 21:00:24;;;;;;;106.63;87.90;;;21.30;56.60;;;;;;4787902;55;21533;-45
2022/11/19 21:05:25;;;;;;;107.32;86.93;;;21.30;56.60;;;;;;4785389;55;21083;-45
2022/11/19 21:10:26;;;;;;;106.43;88.50;;;21.30;56.70;;;;;;4783129;55;21064;-47
2022/11/19 21:15:29;;;;;;;106.12;87.47;;;21.30;56.60;;;;;;4718755;55;21038;-42
2022/11/19 21:20:30;;;;;;;109.75;89.30;;;21.30;56.60;;;;;;5169402;55;20980;-48
2022/11/19 21:25:31;;;;;;;103.95;85.70;;;21.30;56.50;;;;;;4729744;55;21639;-46
2022/11/19 21:30:32;;;;;;;104.30;86.82;;;21.30;56.70;;;;;;4694721;59;21079;-48
2022/11/19 21:35:37;;;;;;;100.78;83.35;;;21.30;56.50;;;;;;4724113;55;21537;-38
2022/11/19 21:40:39;;;;;;;103.47;84.43;;;21.30;57.20;;;;;;4694723;59;21016;-43
2022/11/19 21:45:40;;;;;;;105.00;84.15;;;21.30;56.50;;;;;;4730510;55;21012;-37
2022/11/19 21:50:41;;;;;;;101.70;83.68;;;21.30;56.50;;;;;;5007704;55;21550;-48
2022/11/19 21:55:46;;;;;;;98.43;82.07;;;21.30;56.50;;;;;;4788982;55;21147;-37
2022/11/19 22:00:46;;;;;;;98.75;80.12;;;21.30;56.40;;;;;;4694678;59;21079;-46
2022/11/19 22:05:57;;;;;;;94.07;78.95;;;21.30;56.40;;;;;;4695051;55;21031;-46
2022/11/19 22:10:58;;;;;;;94.20;78.03;;;21.30;56.40;;;;;;4764309;55;21059;-45
2022/11/19 22:15:59;;;;;;;99.68;80.30;;;21.30;56.40;;;;;;4694894;59;21024;-50
2022/11/19 22:21:01;;;;;;;97.37;80.12;;;21.30;56.40;;;;;;4695224;59;21561;-47
2022/11/19 22:26:04;;;;;;;89.15;73.35;;;21.30;56.40;;;;;;5168424;55;21112;-45
2022/11/19 22:31:05;;;;;;;93.45;77.85;;;21.30;56.40;;;;;;4742898;55;21059;-42
2022/11/19 22:36:08;;;;;;;91.25;74.60;;;21.30;56.30;;;;;;4954932;55;21482;-38
2022/11/19 22:41:11;;;;;;;88.85;72.65;;;21.30;56.30;;;;;;4731937;55;21036;-48
2022/11/19 22:46:13;;;;;;;87.65;72.47;;;21.30;56.30;;;;;;4695345;59;21032;-46
2022/11/19 22:51:24;;;;;;;89.30;73.47;;;21.30;56.30;;;;;;4694952;59;21071;-45
2022/11/19 22:56:27;;;;;;;82.07;67.72;;;21.30;56.30;;;;;;4788819;55;21055;-48
2022/11/19 23:01:30;;;;;;;86.60;71.97;;;21.30;56.30;;;;;;5035660;55;21072;-49
2022/11/19 23:06:32;;;;;;;84.62;68.47;;;21.30;56.20;;;;;;5078251;55;21000;-45
2022/11/19 23:16:53;;;;;;;79.18;65.60;;;21.30;56.30;;;;;;4694313;55;21028;-33
2022/11/19 23:21:54;;;;;;;80.05;66.47;;;21.30;56.30;;;;;;4976824;55;21007;-38
2022/11/19 23:26:55;;;;;;;82.35;67.37;;;21.30;56.20;;;;;;4695031;59;20996;-45
2022/11/19 23:31:55;;;;;;;77.62;64.12;;;21.30;56.20;;;;;;4694755;59;21028;-47
2022/11/19 23:36:56;;;;;;;75.72;62.40;;;21.30;56.20;;;;;;4695064;59;21002;-47
2022/11/19 23:41:57;;;;;;;74.57;62.22;;;21.30;56.20;;;;;;4718706;55;21012;-48
2022/11/19 23:46:58;;;;;;;73.80;60.83;;;21.30;56.20;;;;;;4695094;59;21060;-47
2022/11/19 23:51:59;;;;;;;73.72;61.60;;;21.30;56.20;;;;;;4917308;55;21008;-43
2022/11/19 23:56:59;;;;;;;72.53;60.20;;;21.30;56.20;;;;;;4694780;59;20992;-42
